Time;durP1;ratioP1;P1;durP2;ratioP2;P2;SDS_P1;SDS_P2;PMS_P1;PMS_P2;Temp;Humidity;BMP_temperature;BMP_pressure;BME280_temperature;BME280_humidity;BME280_pressure;Samples;Min_cycle;Max_cycle;Signal;HPM_P1;HPM_P2
2021/09/15 00:02:20;;;;;;;8.75;5.60;;;;;;;12.23;94.83;100961.61;1727360;83;21030;-52
2021/09/15 00:04:46;;;;;;;9.25;6.00;;;;;;;12.24;94.53;100964.62;1727592;83;20935;-52
2021/09/15 00:07:12;;;;;;;10.10;5.78;;;;;;;12.28;94.44;100965.00;1727305;83;20979;-52
2021/09/15 00:09:39;;;;;;;10.15;5.90;;;;;;;12.31;94.36;100964.95;1727208;83;21731;-53
2021/09/15 00:12:07;;;;;;;9.00;5.78;;;;;;;12.36;94.33;100964.84;1727262;83;20947;-52
2021/09/15 00:14:34;;;;;;;10.48;6.12;;;;;;;12.39;94.30;100971.73;1727573;83;20892;-52
2021/09/15 00:17:02;;;;;;;9.20;5.47;;;;;;;12.38;94.09;100967.00;1727338;82;21454;-52
2021/09/15 00:19:30;;;;;;;10.58;5.05;;;;;;;12.39;93.95;100971.73;1727368;83;20951;-52
2021/09/15 00:21:57;;;;;;;13.50;5.53;;;;;;;12.39;93.75;100976.92;1727386;83;21074;-52
2021/09/15 00:24:25;;;;;;;9.53;6.03;;;;;;;12.38;93.74;100979.11;1727315;83;20979;-52
2021/09/15 00:26:51;;;;;;;9.95;5.90;;;;;;;12.36;93.60;100981.30;1727783;83;20896;-52
2021/09/15 00:29:18;;;;;;;15.88;6.10;;;;;;;12.35;93.74;100978.28;1700094;83;21049;-52
2021/09/15 00:31:44;;;;;;;18.92;6.08;;;;;;;12.38;94.21;100986.90;1700351;83;21521;-52
2021/09/15 00:34:11;;;;;;;20.92;6.30;;;;;;;12.34;94.45;100986.95;1727454;83;21005;-52
2021/09/15 00:36:37;;;;;;;12.15;6.05;;;;;;;12.33;94.53;100983.08;1700350;83;20904;-52
2021/09/15 00:39:03;;;;;;;14.20;6.03;;;;;;;12.31;94.34;100986.14;1727371;83;21002;-52
2021/09/15 00:41:30;;;;;;;20.12;5.53;;;;;;;12.31;94.17;100985.72;1727239;82;20960;-52
2021/09/15 00:44:03;;;;;;;29.23;6.37;;;;;;;12.30;94.25;100981.41;1727428;81;20948;-52
2021/09/15 00:46:31;;;;;;;13.25;5.90;;;;;;;12.28;94.44;100987.07;1727702;83;21117;-53
2021/09/15 00:48:59;;;;;;;15.88;6.58;;;;;;;12.25;94.52;100989.72;1727183;83;20964;-52
2021/09/15 00:51:26;;;;;;;14.30;6.08;;;;;;;12.23;94.53;100990.16;1727396;83;20947;-52
2021/09/15 00:53:54;;;;;;;18.85;6.12;;;;;;;12.19;94.36;100986.78;1727572;83;21454;-52
2021/09/15 00:56:22;;;;;;;25.92;6.67;;;;;;;12.16;94.39;100988.12;1727187;83;20900;-52
2021/09/15 00:58:48;;;;;;;36.30;7.85;;;;;;;12.13;94.47;100988.61;1700653;83;21080;-52
2021/09/15 01:01:17;;;;;;;24.45;7.87;;;;;;;12.09;94.59;100985.20;1727246;82;21027;-52
2021/09/15 01:03:45;;;;;;;45.08;7.33;;;;;;;12.07;94.57;100989.13;1727526;83;21442;-52
2021/09/15 01:06:12;;;;;;;19.27;5.92;;;;;;;12.03;94.51;100990.06;1727641;83;20971;-52
2021/09/15 01:08:41;;;;;;;29.63;6.55;;;;;;;12.01;94.43;100991.83;1727253;83;20877;-52
2021/09/15 01:11:11;;;;;;;12.15;5.50;;;;;;;11.97;94.64;100990.56;1692204;84;20923;-52
2021/09/15 01:13:41;;;;;;;10.75;5.22;;;;;;;11.92;94.70;100987.61;1691181;84;21528;-51
2021/09/15 01:16:30;;;;;;;12.65;5.03;;;;;;;11.86;94.89;100983.78;1692540;84;20998;-51
2021/09/15 01:19:01;;;;;;;27.30;6.00;;;;;;;11.76;94.84;100976.61;1594313;86;21037;-52
2021/09/15 01:21:47;;;;;;;35.55;6.45;;;;;;;11.70;94.82;100983.17;1605538;89;21049;-51
2021/09/15 01:24:28;;;;;;;30.85;8.38;;;;;;;11.64;94.65;100980.67;1664832;85;21176;-52
2021/09/15 01:27:15;;;;;;;27.77;6.35;;;;;;;11.56;94.64;100982.07;1686944;85;20913;-52
2021/09/15 01:29:55;;;;;;;12.80;5.80;;;;;;;11.47;94.88;100986.94;1674317;85;20957;-51
2021/09/15 01:32:23;;;;;;;14.53;5.33;;;;;;;11.41;95.18;100978.41;1687093;85;20936;-52
2021/09/15 01:34:52;;;;;;;11.53;5.22;;;;;;;11.35;95.40;100980.64;1687080;85;20980;-52
2021/09/15 01:37:21;;;;;;;14.73;5.62;;;;;;;11.28;95.53;100975.13;1687309;85;21135;-52
2021/09/15 01:39:56;;;;;;;14.45;5.62;;;;;;;11.20;95.50;100979.95;1687342;85;20969;-53
2021/09/15 01:42:23;;;;;;;11.43;6.58;;;;;;;11.11;95.52;100974.89;1687424;85;20921;-53
2021/09/15 01:44:50;;;;;;;16.27;5.08;;;;;;;11.03;95.62;100985.80;1687057;84;21451;-53
2021/09/15 01:47:19;;;;;;;7.72;4.90;;;;;;;10.95;95.65;100982.42;1687035;85;21624;-53
2021/09/15 01:49:47;;;;;;;7.97;4.78;;;;;;;10.86;95.78;100982.95;1687119;85;21131;-51
2021/09/15 01:52:15;;;;;;;9.18;5.15;;;;;;;10.77;96.05;100986.95;1687144;85;20997;-51
2021/09/15 01:54:44;;;;;;;20.48;5.58;;;;;;;10.69;96.25;100991.33;1687055;85;20949;-51
2021/09/15 01:57:12;;;;;;;10.23;5.40;;;;;;;10.62;96.47;100991.40;1687090;85;21554;-51
2021/09/15 01:59:50;;;;;;;15.83;4.85;;;;;;;10.55;96.53;100991.05;1629261;88;20936;-52
2021/09/15 02:02:35;;;;;;;18.73;4.75;;;;;;;10.48;96.55;100993.25;1687397;85;22072;-52
2021/09/15 02:05:06;;;;;;;9.00;5.62;;;;;;;10.37;96.70;100990.77;1686842;85;20956;-52
2021/09/15 02:07:37;;;;;;;9.13;5.62;;;;;;;10.30;96.79;100998.13;1686857;85;21008;-52
2021/09/15 02:10:08;;;;;;;7.85;5.50;;;;;;;10.23;96.63;100993.47;1670230;85;21114;-52
2021/09/15 02:12:34;;;;;;;6.60;5.55;;;;;;;10.16;96.56;100995.66;1686971;85;20956;-52
2021/09/15 02:15:04;;;;;;;13.83;5.22;;;;;;;10.08;96.56;100994.42;1686991;85;20941;-52
2021/09/15 02:17:32;;;;;;;8.80;5.35;;;;;;;10.02;96.52;100999.23;1686973;85;20980;-51
2021/09/15 02:20:02;;;;;;;9.88;5.50;;;;;;;9.93;96.65;101000.57;1687130;85;21272;-52
2021/09/15 02:22:34;;;;;;;10.78;5.62;;;;;;;9.86;96.76;100996.32;1686584;85;21617;-51
2021/09/15 02:25:19;;;;;;;15.53;5.78;;;;;;;9.78;96.77;101008.88;1687245;85;20937;-52
2021/09/15 02:27:57;;;;;;;7.70;6.22;;;;;;;9.70;96.74;101009.33;1687038;85;21234;-51
2021/09/15 02:30:42;;;;;;;11.38;6.15;;;;;;;9.62;96.76;101006.82;1686765;85;21598;-52
2021/09/15 02:33:10;;;;;;;11.75;5.60;;;;;;;9.55;96.99;101005.56;1686569;85;21554;-52
2021/09/15 02:35:50;;;;;;;22.07;5.65;;;;;;;9.49;97.09;101009.91;1687111;85;21004;-51
2021/09/15 02:38:22;;;;;;;13.15;5.08;;;;;;;9.42;97.08;101012.06;1686664;85;21535;-51
2021/09/15 02:40:50;;;;;;;12.58;5.97;;;;;;;9.36;97.18;101009.52;1686496;85;21643;-51
2021/09/15 02:43:19;;;;;;;10.80;5.70;;;;;;;9.31;97.22;101009.98;1686865;85;20964;-52
2021/09/15 02:45:49;;;;;;;9.38;4.95;;;;;;;9.24;97.22;101021.21;1686699;85;21003;-52
2021/09/15 02:48:23;;;;;;;9.95;4.72;;;;;;;9.16;97.24;101020.78;1686800;85;21535;-52
2021/09/15 02:50:54;;;;;;;12.65;5.33;;;;;;;9.11;97.22;101029.44;1686860;85;21003;-52
2021/09/15 02:53:22;;;;;;;10.65;5.12;;;;;;;9.03;97.24;101029.45;1685945;85;21191;-52
2021/09/15 02:55:52;;;;;;;9.50;5.37;;;;;;;8.96;97.29;101031.19;1651379;85;20893;-51
2021/09/15 02:58:41;;;;;;;11.05;5.47;;;;;;;8.90;97.39;101032.05;1629282;87;20957;-52
2021/09/15 03:01:09;;;;;;;10.13;4.97;;;;;;;8.81;97.44;101037.25;1627918;86;21083;-51
2021/09/15 03:03:39;;;;;;;9.00;4.47;;;;;;;8.75;97.46;101035.97;1655411;83;20927;-52
2021/09/15 03:06:07;;;;;;;9.15;4.65;;;;;;;8.68;97.65;101036.41;1691734;83;21215;-51
2021/09/15 03:08:52;;;;;;;10.45;4.70;;;;;;;8.63;97.89;101042.85;1692720;84;20962;-51
2021/09/15 03:11:21;;;;;;;11.25;5.35;;;;;;;8.57;98.15;101042.86;1692587;84;20951;-51
2021/09/15 03:13:49;;;;;;;9.85;4.58;;;;;;;8.53;98.36;101047.61;1692770;84;21022;-52
2021/09/15 03:16:21;;;;;;;8.08;4.47;;;;;;;8.48;98.37;101045.43;1692719;83;20982;-52
2021/09/15 03:18:48;;;;;;;7.35;4.80;;;;;;;8.45;98.47;101044.11;1692643;84;20959;-51
2021/09/15 03:21:17;;;;;;;7.92;4.47;;;;;;;8.41;98.49;101044.98;1692495;83;20982;-51
2021/09/15 03:23:45;;;;;;;10.32;4.10;;;;;;;8.36;98.64;101044.13;1692650;84;21017;-51
2021/09/15 03:26:12;;;;;;;14.53;4.87;;;;;;;8.33;98.67;101045.84;1692739;83;21450;-51
2021/09/15 03:28:40;;;;;;;10.58;5.20;;;;;;;8.29;98.61;101049.70;1692505;84;21045;-51
2021/09/15 03:31:06;;;;;;;8.45;4.60;;;;;;;8.25;98.66;101049.27;1692417;84;21142;-52
2021/09/15 03:33:33;;;;;;;15.53;4.45;;;;;;;8.22;98.78;101054.44;1692734;84;20875;-51
2021/09/15 03:36:00;;;;;;;14.60;4.45;;;;;;;8.19;98.92;101058.73;1692710;84;21481;-51
2021/09/15 03:38:27;;;;;;;9.20;4.60;;;;;;;8.14;98.95;101060.45;1666556;84;20923;-51
2021/09/15 03:40:54;;;;;;;7.97;4.72;;;;;;;8.12;99.10;101060.01;1692889;84;21616;-51
2021/09/15 03:43:21;;;;;;;11.57;5.17;;;;;;;8.09;99.17;101067.33;1666692;84;22311;-51
2021/09/15 03:45:47;;;;;;;8.48;4.45;;;;;;;8.08;99.32;101072.47;1692394;83;21520;-51
2021/09/15 03:48:14;;;;;;;7.00;4.67;;;;;;;8.06;99.35;101076.33;1691732;84;20979;-52
2021/09/15 03:50:42;;;;;;;5.10;4.15;;;;;;;8.04;99.51;101075.05;1686316;84;20984;-51
2021/09/15 03:53:09;;;;;;;8.73;4.30;;;;;;;8.02;99.65;101075.89;1706477;84;21565;-52
2021/09/15 03:55:36;;;;;;;8.20;3.77;;;;;;;8.02;99.70;101078.47;1706401;83;21897;-51
2021/09/15 03:58:06;;;;;;;4.78;3.85;;;;;;;8.03;99.88;101083.64;1672193;85;21023;-51
2021/09/15 04:00:34;;;;;;;7.85;3.72;;;;;;;8.09;100.00;101086.67;1706412;84;20877;-51
2021/09/15 04:03:01;;;;;;;6.30;4.12;;;;;;;8.18;100.00;101092.25;1706368;83;20952;-51
2021/09/15 04:05:30;;;;;;;5.12;3.98;;;;;;;8.29;100.00;101094.43;1706464;84;21510;-51
2021/09/15 04:07:58;;;;;;;8.48;4.17;;;;;;;8.43;100.00;101094.86;1706441;82;20937;-51
2021/09/15 04:10:26;;;;;;;7.85;3.90;;;;;;;8.60;100.00;101100.92;1706140;83;20980;-52
2021/09/15 04:12:54;;;;;;;4.83;3.47;;;;;;;8.78;100.00;101112.12;1706421;83;21008;-51
2021/09/15 04:15:22;;;;;;;7.22;3.98;;;;;;;8.97;99.67;101109.49;1686157;84;20996;-51
2021/09/15 04:17:50;;;;;;;6.03;3.62;;;;;;;9.16;99.21;101115.06;1706382;84;20988;-52
2021/09/15 04:20:16;;;;;;;5.65;3.60;;;;;;;9.33;98.56;101116.77;1706575;83;21110;-52
2021/09/15 04:22:45;;;;;;;10.58;4.40;;;;;;;9.51;97.75;101114.55;1706347;84;20936;-51
2021/09/15 04:33:34;;;;;;;6.47;3.47;;;;;;;10.30;94.15;101118.03;1706443;84;21344;-51
2021/09/15 04:36:02;;;;;;;11.05;3.37;;;;;;;10.46;92.92;101121.83;1706387;83;20956;-51
2021/09/15 04:38:29;;;;;;;12.43;3.08;;;;;;;10.56;91.86;101122.20;1706348;82;21482;-52
2021/09/15 04:40:57;;;;;;;7.78;3.22;;;;;;;10.60;90.74;101123.89;1706375;82;20929;-51
2021/09/15 04:43:24;;;;;;;8.73;3.58;;;;;;;10.58;89.80;101124.34;1706757;84;20885;-51
2021/09/15 04:45:51;;;;;;;7.12;3.12;;;;;;;10.60;88.83;101124.31;1706334;84;21163;-51
2021/09/15 04:48:19;;;;;;;6.37;3.27;;;;;;;10.63;87.86;101130.33;1706466;84;20917;-51
2021/09/15 04:50:45;;;;;;;8.48;2.92;;;;;;;10.66;86.30;101131.17;1713939;83;20873;-51
2021/09/15 04:53:12;;;;;;;15.25;3.05;;;;;;;10.67;85.53;101134.19;1714237;83;20932;-51
2021/09/15 04:55:40;;;;;;;10.13;3.30;;;;;;;10.66;84.88;101130.76;1714312;83;20968;-52
2021/09/15 04:58:07;;;;;;;5.70;3.50;;;;;;;10.66;83.25;101135.06;1714600;83;21102;-51
2021/09/15 05:00:33;;;;;;;8.13;4.22;;;;;;;10.65;82.10;101135.52;1714224;83;21505;-51
2021/09/15 05:03:02;;;;;;;4.83;3.72;;;;;;;10.64;82.08;101143.70;1679685;85;20868;-51
2021/09/15 05:05:33;;;;;;;9.43;5.20;;;;;;;10.63;81.80;101142.44;1712675;83;20940;-51
2021/09/15 05:07:59;;;;;;;9.48;5.08;;;;;;;10.60;81.04;101148.48;1686183;83;21019;-51
2021/09/15 05:10:26;;;;;;;10.00;5.35;;;;;;;10.58;80.59;101148.05;1714307;83;21807;-51
2021/09/15 05:12:55;;;;;;;12.05;4.92;;;;;;;10.60;80.13;101151.48;1714360;83;20916;-51
2021/09/15 05:15:22;;;;;;;11.63;5.12;;;;;;;10.61;80.39;101152.79;1714205;83;20925;-51
2021/09/15 05:17:49;;;;;;;10.50;5.47;;;;;;;10.62;80.35;101157.09;1686108;83;20960;-51
2021/09/15 05:20:19;;;;;;;13.68;4.85;;;;;;;10.64;80.49;101160.98;1714496;83;20964;-51
2021/09/15 05:22:49;;;;;;;10.55;4.80;;;;;;;10.69;79.21;101164.81;1714346;83;21087;-51
2021/09/15 05:25:19;;;;;;;7.92;4.62;;;;;;;10.74;78.75;101156.59;1714196;83;20960;-51
2021/09/15 05:27:48;;;;;;;14.07;3.77;;;;;;;10.79;77.73;101156.11;1714341;82;20964;-52
2021/09/15 05:30:17;;;;;;;7.10;3.98;;;;;;;10.86;77.48;101159.07;1714212;83;21582;-51
2021/09/15 05:32:45;;;;;;;6.22;3.75;;;;;;;10.90;77.80;101159.91;1679291;84;20939;-51
2021/09/15 05:35:12;;;;;;;7.12;3.55;;;;;;;10.89;77.43;101155.16;1714305;83;21813;-51
2021/09/15 05:37:40;;;;;;;8.75;3.35;;;;;;;10.91;77.67;101159.88;1714319;83;20944;-51
2021/09/15 05:40:08;;;;;;;3.98;2.85;;;;;;;10.93;77.18;101162.47;1714309;83;20893;-53
2021/09/15 05:42:36;;;;;;;2.60;2.37;;;;;;;11.00;77.05;101161.99;1714359;83;20889;-51
2021/09/15 05:45:05;;;;;;;7.05;3.10;;;;;;;11.04;76.64;101167.11;1714425;83;20904;-51
2021/09/15 05:47:33;;;;;;;7.00;3.70;;;;;;;11.10;75.44;101163.61;1714364;83;21063;-51
2021/09/15 05:50:00;;;;;;;6.40;2.98;;;;;;;11.17;75.42;101171.74;1692979;83;20979;-51
2021/09/15 05:52:28;;;;;;;10.60;3.50;;;;;;;11.27;73.86;101168.63;1727324;83;21378;-51
2021/09/15 05:54:54;;;;;;;11.18;5.33;;;;;;;11.36;72.86;101176.75;1727578;81;20932;-51
2021/09/15 05:57:21;;;;;;;12.40;3.77;;;;;;;11.44;72.19;101180.11;1727728;83;20979;-51
2021/09/15 05:59:47;;;;;;;5.47;2.98;;;;;;;11.53;72.96;101176.56;1727452;83;21158;-51
2021/09/15 06:02:13;;;;;;;6.05;2.67;;;;;;;11.58;72.87;101181.72;1727294;83;20853;-51
2021/09/15 06:04:41;;;;;;;6.42;2.72;;;;;;;11.62;72.47;101180.38;1727261;83;21485;-51
2021/09/15 06:07:13;;;;;;;2.35;2.12;;;;;;;11.67;71.46;101185.95;1726134;83;20971;-52
2021/09/15 06:09:39;;;;;;;4.45;2.60;;;;;;;11.74;70.58;101185.83;1700305;83;20986;-51
2021/09/15 06:12:07;;;;;;;7.15;2.30;;;;;;;11.83;69.86;101193.10;1700298;83;21185;-51
2021/09/15 06:14:35;;;;;;;5.22;2.40;;;;;;;11.91;69.45;101193.44;1727336;81;20912;-51
2021/09/15 06:17:04;;;;;;;5.33;2.00;;;;;;;11.99;69.22;101193.31;1727484;83;20918;-51
2021/09/15 06:19:32;;;;;;;2.98;1.95;;;;;;;12.06;68.72;101194.14;1727345;83;20935;-51
2021/09/15 06:22:08;;;;;;;4.58;2.05;;;;;;;12.12;67.52;101197.09;1691037;84;20982;-51
2021/09/15 06:24:44;;;;;;;4.00;2.10;;;;;;;12.22;63.53;101197.38;1690518;84;21982;-51
2021/09/15 06:27:11;;;;;;;3.50;2.00;;;;;;;12.34;62.06;101198.95;1692475;84;20895;-52
2021/09/15 06:29:38;;;;;;;5.47;2.20;;;;;;;12.43;61.63;101194.08;1692567;84;21089;-51
2021/09/15 06:32:06;;;;;;;3.72;2.15;;;;;;;12.50;62.26;101199.59;1692672;84;20907;-50
2021/09/15 06:34:32;;;;;;;4.45;2.05;;;;;;;12.55;62.67;101196.52;1692895;84;20987;-52
2021/09/15 06:37:00;;;;;;;11.50;2.37;;;;;;;12.64;61.69;101193.77;1667312;84;21007;-51
2021/09/15 06:39:27;;;;;;;6.85;2.17;;;;;;;12.74;61.24;101194.91;1692685;83;20947;-51
2021/09/15 06:41:53;;;;;;;3.25;2.10;;;;;;;12.83;61.07;101198.67;1692715;84;20943;-51
2021/09/15 06:44:20;;;;;;;5.33;2.62;;;;;;;12.91;60.16;101205.89;1692577;83;20916;-51
2021/09/15 06:46:46;;;;;;;14.07;5.22;;;;;;;12.99;60.26;101198.41;1692643;84;20998;-51
2021/09/15 06:49:14;;;;;;;6.17;2.50;;;;;;;13.05;60.49;101195.27;1691687;83;21010;-51
2021/09/15 06:51:42;;;;;;;2.47;1.72;;;;;;;13.12;59.83;101197.75;1681482;83;22198;-51
2021/09/15 06:54:08;;;;;;;4.10;1.95;;;;;;;13.21;59.79;101204.95;1714478;83;21019;-51
2021/09/15 06:56:36;;;;;;;6.35;1.95;;;;;;;13.31;58.75;101203.52;1714297;83;20976;-51
2021/09/15 06:59:03;;;;;;;2.50;1.80;;;;;;;13.36;59.14;101202.52;1714459;83;21561;-51
2021/09/15 07:01:30;;;;;;;3.50;2.00;;;;;;;13.42;57.52;101208.06;1714656;83;21759;-51
2021/09/15 07:03:56;;;;;;;3.75;2.33;;;;;;;13.49;57.70;101210.98;1714386;83;20897;-51
2021/09/15 07:06:23;;;;;;;3.90;2.20;;;;;;;13.55;57.69;101206.58;1714410;83;20893;-51
2021/09/15 07:08:52;;;;;;;2.87;1.92;;;;;;;13.59;57.05;101205.63;1714329;83;21051;-51
2021/09/15 07:11:21;;;;;;;7.08;1.70;;;;;;;13.71;56.71;101211.88;1714360;83;21487;-51
2021/09/15 07:13:48;;;;;;;2.37;1.30;;;;;;;13.81;55.93;101207.82;1714550;83;21822;-51
2021/09/15 07:16:16;;;;;;;3.30;1.95;;;;;;;13.91;52.17;101205.44;1714341;83;20976;-51
2021/09/15 07:18:44;;;;;;;7.50;1.72;;;;;;;14.03;52.02;101197.39;1714506;83;20921;-51
2021/09/15 07:21:13;;;;;;;2.90;1.80;;;;;;;14.15;51.69;101189.76;1714251;83;21028;-51
2021/09/15 07:23:40;;;;;;;5.05;1.35;;;;;;;14.27;51.53;101192.51;1714212;83;21466;-51
2021/09/15 07:26:07;;;;;;;13.43;2.15;;;;;;;14.39;49.87;101190.08;1714234;83;21036;-52
2021/09/15 07:28:34;;;;;;;1.87;1.47;;;;;;;14.52;50.45;101186.74;1713864;83;20972;-51
2021/09/15 07:31:00;;;;;;;4.72;1.42;;;;;;;14.65;51.39;101192.52;1714206;83;20948;-51
2021/09/15 07:33:26;;;;;;;3.80;1.75;;;;;;;14.76;50.37;101188.39;1685881;83;20897;-51
2021/09/15 07:35:53;;;;;;;4.55;2.35;;;;;;;14.88;50.21;101192.02;1714294;83;20921;-53
2021/09/15 07:38:20;;;;;;;2.33;1.55;;;;;;;15.00;48.66;101191.28;1714307;83;21112;-51
2021/09/15 07:40:47;;;;;;;5.28;1.55;;;;;;;15.07;48.67;101185.87;1714401;83;21465;-51
2021/09/15 07:43:13;;;;;;;4.40;1.65;;;;;;;15.14;48.32;101185.28;1686129;83;21407;-51
2021/09/15 07:45:40;;;;;;;5.62;1.50;;;;;;;15.23;44.78;101190.25;1714146;82;20976;-51
2021/09/15 07:48:08;;;;;;;5.30;1.57;;;;;;;15.25;46.50;101181.09;1714267;83;21026;-51
2021/09/15 08:26:30;;;;;;;4.72;2.00;;;;;;;17.36;38.83;101166.83;1706232;84;21005;-52
2021/09/15 08:28:56;;;;;;;2.55;1.30;;;;;;;17.53;38.80;101164.91;1706457;84;21522;-51
2021/09/15 08:31:24;;;;;;;9.75;1.27;;;;;;;17.74;35.98;101163.72;1706381;84;21011;-51
2021/09/15 08:33:51;;;;;;;8.05;1.37;;;;;;;17.98;35.85;101162.39;1706327;84;21475;-51
2021/09/15 08:36:18;;;;;;;5.72;1.42;;;;;;;18.21;36.52;101159.37;1685740;84;21483;-51
2021/09/15 08:38:45;;;;;;;4.12;2.10;;;;;;;18.42;34.75;101159.44;1706512;84;21329;-51
2021/09/15 08:41:14;;;;;;;9.00;2.00;;;;;;;18.63;34.27;101157.70;1706320;84;20981;-51
2021/09/15 08:43:40;;;;;;;11.15;3.37;;;;;;;18.89;33.73;101152.69;1686705;84;21490;-51
2021/09/15 08:46:07;;;;;;;2.55;1.57;;;;;;;19.06;35.52;101152.44;1706473;83;21628;-52
2021/09/15 08:48:39;;;;;;;2.50;1.20;;;;;;;19.13;34.53;101151.27;1706566;84;21446;-52
2021/09/15 08:51:01;;;;;;;6.25;1.25;;;;;;;19.16;33.31;101152.45;1709171;83;21177;-51
2021/09/15 08:53:28;;;;;;;6.22;1.50;;;;;;;19.22;34.07;101156.11;1714209;83;20866;-52
2021/09/15 08:55:55;;;;;;;5.78;1.30;;;;;;;19.50;32.58;101148.31;1714245;83;21064;-51
2021/09/15 08:58:23;;;;;;;2.80;1.20;;;;;;;19.71;31.82;101148.27;1714298;83;20983;-51
2021/09/15 09:00:50;;;;;;;5.97;1.70;;;;;;;20.00;31.43;101150.02;1714151;83;21052;-52
2021/09/15 09:03:16;;;;;;;3.05;1.25;;;;;;;20.15;33.06;101147.12;1686147;83;21580;-52
2021/09/15 09:06:34;;;;;;;3.95;1.10;;;;;;;20.27;32.40;101143.05;1798313;79;22669;-52
2021/09/15 09:09:04;;;;;;;2.67;1.37;;;;;;;20.39;31.65;101143.79;1758060;81;20862;-52
2021/09/15 09:11:35;;;;;;;4.37;1.50;;;;;;;20.52;31.44;101141.41;1738342;81;21398;-53
2021/09/15 09:14:05;;;;;;;5.42;1.25;;;;;;;20.67;31.33;101136.29;1707970;83;20967;-53
2021/09/15 09:16:49;;;;;;;6.67;1.62;;;;;;;20.98;29.18;101137.86;1724714;83;21371;-52
2021/09/15 09:19:21;;;;;;;2.42;1.50;;;;;;;20.65;29.23;101139.02;1724595;83;20948;-53
2021/09/15 09:21:50;;;;;;;4.50;1.45;;;;;;;20.27;28.98;101133.86;1724495;83;20967;-51
2021/09/15 09:24:23;;;;;;;9.78;1.25;;;;;;;20.10;31.38;101131.60;1724514;83;21018;-51
2021/09/15 09:27:01;;;;;;;3.50;1.42;;;;;;;20.15;30.46;101133.16;1724373;83;20960;-52
2021/09/15 09:29:35;;;;;;;1.30;1.20;;;;;;;20.47;29.20;101133.34;1723249;83;21528;-52
2021/09/15 09:32:07;;;;;;;3.45;1.20;;;;;;;20.88;29.96;101133.53;1721499;83;21043;-52
2021/09/15 09:34:47;;;;;;;5.90;1.27;;;;;;;21.20;30.06;101135.81;1696960;83;21596;-52
2021/09/15 09:37:17;;;;;;;2.85;1.20;;;;;;;21.20;26.54;101139.77;1670323;84;21027;-51
2021/09/15 09:39:50;;;;;;;1.75;1.30;;;;;;;20.92;25.88;101134.63;1698209;83;20924;-52
2021/09/15 09:42:27;;;;;;;8.65;1.65;;;;;;;20.76;27.27;101125.77;1698294;84;20904;-52
2021/09/15 09:45:10;;;;;;;2.50;1.10;;;;;;;20.86;27.43;101132.77;1698306;84;21094;-52
2021/09/15 09:47:38;;;;;;;5.08;1.07;;;;;;;20.93;25.40;101127.12;1698319;84;20936;-52
2021/09/15 09:50:19;;;;;;;1.72;1.10;;;;;;;20.94;26.38;101132.77;1716298;82;21404;-52
2021/09/15 09:53:01;;;;;;;1.32;0.95;;;;;;;20.95;26.58;101135.78;1708846;84;21489;-53
2021/09/15 09:55:31;;;;;;;4.80;1.45;;;;;;;20.92;26.76;101135.08;1708970;84;21414;-53
2021/09/15 09:57:57;;;;;;;12.37;2.67;;;;;;;21.25;27.74;101130.32;1708818;83;20968;-53
2021/09/15 10:00:25;;;;;;;5.22;1.87;;;;;;;21.65;24.97;101112.38;1708962;83;21265;-53
2021/09/15 10:02:51;;;;;;;11.53;1.80;;;;;;;21.85;23.91;101113.07;1657893;84;21064;-52
2021/09/15 10:05:19;;;;;;;3.10;1.35;;;;;;;21.89;25.31;101109.81;1703985;83;22125;-52
2021/09/15 10:07:46;;;;;;;5.03;1.22;;;;;;;22.14;24.99;101101.34;1696300;84;21039;-53
2021/09/15 10:10:16;;;;;;;2.60;2.00;;;;;;;22.28;24.11;101100.55;1666236;84;21035;-53
2021/09/15 10:12:42;;;;;;;6.17;1.75;;;;;;;22.48;24.23;101102.08;1696332;84;21411;-53
2021/09/15 10:15:10;;;;;;;1.80;1.25;;;;;;;22.62;23.08;101095.13;1696142;83;21144;-52
2021/09/15 10:17:55;;;;;;;11.22;1.90;;;;;;;22.42;23.23;101092.33;1665766;84;21008;-53
2021/09/15 10:20:25;;;;;;;2.72;1.37;;;;;;;22.39;25.36;101090.25;1695515;84;21594;-53
2021/09/15 10:22:51;;;;;;;6.67;1.17;;;;;;;22.57;22.57;101091.92;1695832;84;20980;-53
2021/09/15 10:25:20;;;;;;;4.58;1.10;;;;;;;22.14;21.61;101101.83;1695867;84;21562;-53
2021/09/15 10:28:08;;;;;;;3.05;1.27;;;;;;;21.81;21.92;101097.89;1695916;83;21157;-53
2021/09/15 10:30:52;;;;;;;7.42;1.00;;;;;;;21.82;20.92;101099.59;1695730;84;21001;-53
2021/09/15 10:33:43;;;;;;;2.50;1.05;;;;;;;22.01;22.95;101086.70;1695966;84;20945;-52
2021/09/15 10:36:20;;;;;;;5.15;1.50;;;;;;;22.36;25.09;101090.88;1695947;84;21402;-52
2021/09/15 10:38:58;;;;;;;55.05;4.12;;;;;;;22.22;22.31;101082.45;1695894;83;21477;-52
2021/09/15 10:41:36;;;;;;;54.58;3.40;;;;;;;22.24;22.37;101088.48;1695796;83;21073;-53
2021/09/15 10:44:10;;;;;;;37.70;3.70;;;;;;;22.43;24.54;101081.66;1695854;84;20933;-52
2021/09/15 10:46:38;;;;;;;8.65;1.65;;;;;;;22.61;24.73;101078.47;1695567;83;21012;-52
2021/09/15 10:49:29;;;;;;;11.05;1.37;;;;;;;22.71;23.54;101081.86;1695833;84;21003;-52
2021/09/15 10:52:13;;;;;;;3.40;1.30;;;;;;;22.79;25.48;101076.96;1666064;84;20999;-53
2021/09/15 10:54:51;;;;;;;4.87;1.45;;;;;;;22.91;24.47;101074.05;1695855;84;21467;-53
2021/09/15 10:57:35;;;;;;;6.30;1.62;;;;;;;22.85;23.17;101070.47;1695683;83;21590;-52
2021/09/15 11:00:21;;;;;;;6.05;1.32;;;;;;;22.63;21.84;101063.84;1695726;83;20988;-52
2021/09/15 11:02:50;;;;;;;6.28;1.30;;;;;;;22.44;23.52;101065.39;1665710;84;21047;-53
2021/09/15 11:05:31;;;;;;;3.58;1.50;;;;;;;22.51;23.19;101065.42;1695583;83;20909;-53
2021/09/15 11:07:58;;;;;;;38.38;2.90;;;;;;;22.54;24.88;101063.92;1695825;84;21147;-53
2021/09/15 11:10:38;;;;;;;22.25;2.77;;;;;;;22.19;29.69;101064.19;1666737;84;20983;-53
2021/09/15 11:13:15;;;;;;;25.48;2.52;;;;;;;22.00;30.82;101059.14;1695744;83;20924;-52
2021/09/15 11:15:52;;;;;;;27.27;3.35;;;;;;;21.80;32.64;101061.94;1695650;83;21062;-52
2021/09/15 11:18:28;;;;;;;42.20;4.08;;;;;;;21.63;31.25;101062.03;1695694;84;21070;-52
2021/09/15 11:20:59;;;;;;;13.15;2.52;;;;;;;21.50;30.96;101060.54;1695581;83;21182;-52
2021/09/15 11:23:29;;;;;;;18.42;2.65;;;;;;;21.58;30.21;101057.00;1695661;84;20956;-53
2021/09/15 11:25:57;;;;;;;38.60;3.27;;;;;;;21.62;30.50;101056.38;1695848;84;21618;-52
2021/09/15 11:28:23;;;;;;;17.48;2.67;;;;;;;21.55;31.22;101051.91;1695610;83;20956;-52
2021/09/15 11:30:58;;;;;;;16.25;3.22;;;;;;;21.62;32.53;101055.89;1695925;84;21081;-52
2021/09/15 11:33:34;;;;;;;8.25;2.25;;;;;;;21.59;31.51;101036.77;1695900;84;22106;-52
2021/09/15 11:36:06;;;;;;;6.25;2.87;;;;;;;21.35;31.95;101050.38;1695732;84;20904;-52
2021/09/15 11:38:35;;;;;;;19.55;2.77;;;;;;;21.18;32.81;101045.56;1695840;84;20912;-52
2021/09/15 11:41:10;;;;;;;22.90;2.52;;;;;;;21.24;32.60;101036.01;1695792;84;20979;-52
2021/09/15 11:43:39;;;;;;;22.75;3.05;;;;;;;21.37;31.82;101028.77;1695731;84;20933;-52
2021/09/15 11:46:07;;;;;;;38.50;4.37;;;;;;;21.33;31.73;101029.84;1695770;84;21015;-52
2021/09/15 11:48:35;;;;;;;61.28;4.05;;;;;;;21.08;32.46;101029.41;1695760;84;20932;-52
2021/09/15 11:51:15;;;;;;;48.63;5.12;;;;;;;20.90;31.77;101036.52;1665668;84;20964;-53
2021/09/15 11:54:01;;;;;;;25.55;3.37;;;;;;;20.84;33.02;101035.53;1665721;84;21063;-53
2021/09/15 11:56:44;;;;;;;12.35;3.12;;;;;;;20.90;32.74;101031.25;1688874;84;20949;-52
2021/09/15 11:59:07;;;;;;;19.35;3.52;;;;;;;20.85;32.57;101033.28;1695407;84;21949;-53
2021/09/15 12:01:37;;;;;;;10.08;2.47;;;;;;;20.92;32.32;101021.48;1666003;84;21034;-52
2021/09/15 12:04:05;;;;;;;38.25;3.05;;;;;;;20.89;31.71;101020.80;1695735;84;21550;-52
2021/09/15 12:06:32;;;;;;;24.10;2.98;;;;;;;20.72;32.36;101016.39;1687831;84;20968;-52
2021/09/15 12:08:58;;;;;;;43.50;3.65;;;;;;;20.62;32.90;101011.62;1665712;84;21020;-52
2021/09/15 12:11:34;;;;;;;19.70;3.12;;;;;;;20.57;32.39;101012.78;1695697;84;21027;-52
2021/09/15 12:14:02;;;;;;;31.48;4.12;;;;;;;20.49;32.03;101010.09;1695562;84;20995;-52
2021/09/15 12:16:33;;;;;;;2.85;2.10;;;;;;;20.51;34.70;101010.00;1665540;84;20929;-53
2021/09/15 12:19:01;;;;;;;11.10;1.87;;;;;;;20.74;31.70;101007.95;1695725;84;21706;-52
2021/09/15 12:21:28;;;;;;;7.53;2.22;;;;;;;20.63;32.31;100998.86;1695861;84;21435;-52
2021/09/15 12:24:05;;;;;;;32.73;2.87;;;;;;;20.50;33.88;101003.05;1695990;83;20933;-52